sensor_id;sensor_type;location;lat;lon;timestamp;P1;durP1;ratioP1;P2;durP2;ratioP2
1701;SDS011;848;48.354;10.064;2022-11-15T00:00:05;16.58;;;7.63;;
1701;SDS011;848;48.354;10.064;2022-11-15T00:02:33;17.45;;;7.90;;
1701;SDS011;848;48.354;10.064;2022-11-15T00:05:00;15.15;;;6.80;;
1701;SDS011;848;48.354;10.064;2022-11-15T00:07:27;15.82;;;8.32;;
1701;SDS011;848;48.354;10.064;2022-11-15T00:09:55;17.67;;;8.05;;
1701;SDS011;848;48.354;10.064;2022-11-15T00:12:22;17.88;;;7.57;;
1701;SDS011;848;48.354;10.064;2022-11-15T00:14:49;16.60;;;7.00;;
1701;SDS011;848;48.354;10.064;2022-11-15T00:17:18;14.07;;;6.65;;
1701;SDS011;848;48.354;10.064;2022-11-15T00:19:44;19.27;;;7.22;;
1701;SDS011;848;48.354;10.064;2022-11-15T00:22:11;16.63;;;7.70;;
1701;SDS011;848;48.354;10.064;2022-11-15T00:24:38;15.48;;;7.00;;
1701;SDS011;848;48.354;10.064;2022-11-15T00:27:06;16.40;;;8.00;;
1701;SDS011;848;48.354;10.064;2022-11-15T00:29:33;20.60;;;8.02;;
1701;SDS011;848;48.354;10.064;2022-11-15T00:32:02;16.90;;;8.38;;
1701;SDS011;848;48.354;10.064;2022-11-15T00:34:29;15.18;;;7.60;;
1701;SDS011;848;48.354;10.064;2022-11-15T00:36:56;16.27;;;6.72;;
1701;SDS011;848;48.354;10.064;2022-11-15T00:39:23;17.50;;;8.30;;
1701;SDS011;848;48.354;10.064;2022-11-15T00:41:50;16.52;;;6.97;;
1701;SDS011;848;48.354;10.064;2022-11-15T00:44:18;17.00;;;7.07;;
1701;SDS011;848;48.354;10.064;2022-11-15T00:46:45;16.92;;;8.05;;
1701;SDS011;848;48.354;10.064;2022-11-15T00:49:12;17.50;;;8.38;;
1701;SDS011;848;48.354;10.064;2022-11-15T00:51:39;17.50;;;7.80;;
1701;SDS011;848;48.354;10.064;2022-11-15T00:54:05;16.33;;;7.20;;
1701;SDS011;848;48.354;10.064;2022-11-15T00:56:32;17.15;;;7.78;;
1701;SDS011;848;48.354;10.064;2022-11-15T00:58:59;18.55;;;8.70;;
1701;SDS011;848;48.354;10.064;2022-11-15T01:01:28;19.55;;;7.30;;
1701;SDS011;848;48.354;10.064;2022-11-15T01:03:55;15.27;;;6.88;;
1701;SDS011;848;48.354;10.064;2022-11-15T01:06:21;13.38;;;5.60;;
1701;SDS011;848;48.354;10.064;2022-11-15T01:08:48;14.20;;;7.40;;
1701;SDS011;848;48.354;10.064;2022-11-15T01:11:15;21.08;;;8.48;;
1701;SDS011;848;48.354;10.064;2022-11-15T01:13:42;17.35;;;7.10;;
1701;SDS011;848;48.354;10.064;2022-11-15T01:16:10;18.63;;;7.70;;
1701;SDS011;848;48.354;10.064;2022-11-15T01:18:40;16.27;;;8.15;;
1701;SDS011;848;48.354;10.064;2022-11-15T01:21:07;17.45;;;8.18;;
1701;SDS011;848;48.354;10.064;2022-11-15T01:23:35;13.45;;;6.85;;
1701;SDS011;848;48.354;10.064;2022-11-15T01:26:03;20.08;;;6.57;;
1701;SDS011;848;48.354;10.064;2022-11-15T01:28:32;16.83;;;7.22;;
1701;SDS011;848;48.354;10.064;2022-11-15T01:31:01;14.60;;;6.15;;
1701;SDS011;848;48.354;10.064;2022-11-15T01:33:29;14.63;;;7.00;;
1701;SDS011;848;48.354;10.064;2022-11-15T01:35:58;14.20;;;6.70;;
1701;SDS011;848;48.354;10.064;2022-11-15T01:38:29;13.98;;;6.72;;
1701;SDS011;848;48.354;10.064;2022-11-15T01:40:56;14.43;;;6.57;;
1701;SDS011;848;48.354;10.064;2022-11-15T01:43:23;15.02;;;6.25;;
1701;SDS011;848;48.354;10.064;2022-11-15T01:45:52;15.52;;;6.03;;
1701;SDS011;848;48.354;10.064;2022-11-15T01:48:22;14.73;;;5.55;;
1701;SDS011;848;48.354;10.064;2022-11-15T01:50:55;17.00;;;5.55;;
1701;SDS011;848;48.354;10.064;2022-11-15T01:53:23;16.58;;;6.40;;
1701;SDS011;848;48.354;10.064;2022-11-15T01:55:52;17.30;;;6.07;;
1701;SDS011;848;48.354;10.064;2022-11-15T01:58:20;13.15;;;6.50;;
1701;SDS011;848;48.354;10.064;2022-11-15T02:00:46;13.05;;;5.50;;
1701;SDS011;848;48.354;10.064;2022-11-15T02:03:14;15.40;;;6.75;;
1701;SDS011;848;48.354;10.064;2022-11-15T02:05:41;13.23;;;5.60;;
1701;SDS011;848;48.354;10.064;2022-11-15T02:08:09;14.32;;;6.03;;
1701;SDS011;848;48.354;10.064;2022-11-15T02:10:46;15.05;;;6.50;;
1701;SDS011;848;48.354;10.064;2022-11-15T02:13:13;15.93;;;5.57;;
1701;SDS011;848;48.354;10.064;2022-11-15T02:15:43;16.08;;;5.82;;
1701;SDS011;848;48.354;10.064;2022-11-15T02:18:24;14.65;;;5.60;;
1701;SDS011;848;48.354;10.064;2022-11-15T02:21:03;11.60;;;4.75;;
1701;SDS011;848;48.354;10.064;2022-11-15T02:23:47;10.95;;;4.38;;
1701;SDS011;848;48.354;10.064;2022-11-15T02:29:32;14.13;;;4.75;;
1701;SDS011;848;48.354;10.064;2022-11-15T02:32:16;14.45;;;5.47;;
1701;SDS011;848;48.354;10.064;2022-11-15T02:34:50;12.50;;;5.15;;
1701;SDS011;848;48.354;10.064;2022-11-15T02:37:23;15.43;;;5.53;;
1701;SDS011;848;48.354;10.064;2022-11-15T02:39:57;13.73;;;5.90;;
1701;SDS011;848;48.354;10.064;2022-11-15T02:42:36;13.70;;;6.00;;
1701;SDS011;848;48.354;10.064;2022-11-15T02:45:26;15.57;;;5.30;;
1701;SDS011;848;48.354;10.064;2022-11-15T02:47:58;12.90;;;5.18;;
1701;SDS011;848;48.354;10.064;2022-11-15T02:50:28;14.07;;;5.18;;
1701;SDS011;848;48.354;10.064;2022-11-15T02:52:57;12.98;;;4.90;;
1701;SDS011;848;48.354;10.064;2022-11-15T02:55:26;14.82;;;5.38;;
1701;SDS011;848;48.354;10.064;2022-11-15T02:57:57;13.55;;;5.20;;
1701;SDS011;848;48.354;10.064;2022-11-15T03:00:43;15.13;;;5.40;;
1701;SDS011;848;48.354;10.064;2022-11-15T03:03:20;13.05;;;4.75;;
1701;SDS011;848;48.354;10.064;2022-11-15T03:06:04;13.20;;;4.88;;
1701;SDS011;848;48.354;10.064;2022-11-15T03:08:42;11.38;;;4.90;;
1701;SDS011;848;48.354;10.064;2022-11-15T03:11:15;15.15;;;4.72;;
1701;SDS011;848;48.354;10.064;2022-11-15T03:13:44;12.35;;;4.75;;
1701;SDS011;848;48.354;10.064;2022-11-15T03:16:15;12.25;;;4.55;;
1701;SDS011;848;48.354;10.064;2022-11-15T03:18:53;12.95;;;4.30;;
1701;SDS011;848;48.354;10.064;2022-11-15T03:21:24;11.65;;;4.70;;
1701;SDS011;848;48.354;10.064;2022-11-15T03:23:51;15.00;;;5.38;;
1701;SDS011;848;48.354;10.064;2022-11-15T03:26:21;14.13;;;4.50;;
1701;SDS011;848;48.354;10.064;2022-11-15T03:28:52;13.52;;;4.75;;
1701;SDS011;848;48.354;10.064;2022-11-15T03:31:22;12.25;;;4.68;;
1701;SDS011;848;48.354;10.064;2022-11-15T03:34:13;11.95;;;4.85;;
1701;SDS011;848;48.354;10.064;2022-11-15T03:36:47;11.98;;;4.50;;
1701;SDS011;848;48.354;10.064;2022-11-15T03:39:15;11.55;;;4.50;;
1701;SDS011;848;48.354;10.064;2022-11-15T03:41:43;11.88;;;4.50;;
1701;SDS011;848;48.354;10.064;2022-11-15T03:44:16;12.10;;;4.25;;
1701;SDS011;848;48.354;10.064;2022-11-15T03:46:49;11.93;;;4.25;;
1701;SDS011;848;48.354;10.064;2022-11-15T03:49:24;11.00;;;3.55;;
1701;SDS011;848;48.354;10.064;2022-11-15T03:51:56;10.43;;;3.92;;
1701;SDS011;848;48.354;10.064;2022-11-15T03:54:23;12.02;;;4.03;;
1701;SDS011;848;48.354;10.064;2022-11-15T03:56:50;11.60;;;4.00;;
1701;SDS011;848;48.354;10.064;2022-11-15T03:59:17;13.73;;;4.90;;
1701;SDS011;848;48.354;10.064;2022-11-15T04:01:44;10.13;;;3.40;;
1701;SDS011;848;48.354;10.064;2022-11-15T04:04:11;11.90;;;3.85;;
1701;SDS011;848;48.354;10.064;2022-11-15T04:06:39;11.68;;;3.85;;
1701;SDS011;848;48.354;10.064;2022-11-15T04:09:06;13.90;;;4.95;;
1701;SDS011;848;48.354;10.064;2022-11-15T04:11:33;12.88;;;4.03;;
1701;SDS011;848;48.354;10.064;2022-11-15T04:14:00;13.02;;;4.18;;
1701;SDS011;848;48.354;10.064;2022-11-15T04:16:27;11.25;;;4.20;;
1701;SDS011;848;48.354;10.064;2022-11-15T04:18:54;13.73;;;4.50;;
1701;SDS011;848;48.354;10.064;2022-11-15T04:21:35;16.05;;;4.07;;
1701;SDS011;848;48.354;10.064;2022-11-15T04:24:20;12.63;;;4.15;;
1701;SDS011;848;48.354;10.064;2022-11-15T04:26:48;12.38;;;4.30;;
1701;SDS011;848;48.354;10.064;2022-11-15T04:29:15;12.70;;;4.40;;
1701;SDS011;848;48.354;10.064;2022-11-15T04:32:00;11.48;;;4.00;;
1701;SDS011;848;48.354;10.064;2022-11-15T04:34:27;11.13;;;4.05;;
1701;SDS011;848;48.354;10.064;2022-11-15T04:36:54;12.88;;;4.10;;
1701;SDS011;848;48.354;10.064;2022-11-15T04:39:41;10.35;;;3.58;;
1701;SDS011;848;48.354;10.064;2022-11-15T04:42:09;10.05;;;3.38;;
1701;SDS011;848;48.354;10.064;2022-11-15T04:44:36;12.52;;;4.30;;
1701;SDS011;848;48.354;10.064;2022-11-15T04:47:03;9.93;;;3.95;;
1701;SDS011;848;48.354;10.064;2022-11-15T04:49:30;11.10;;;3.85;;
1701;SDS011;848;48.354;10.064;2022-11-15T04:51:57;12.10;;;4.20;;
1701;SDS011;848;48.354;10.064;2022-11-15T04:54:24;10.07;;;3.33;;
1701;SDS011;848;48.354;10.064;2022-11-15T04:56:53;13.25;;;4.10;;
1701;SDS011;848;48.354;10.064;2022-11-15T04:59:20;16.10;;;4.18;;
1701;SDS011;848;48.354;10.064;2022-11-15T05:01:47;11.43;;;3.38;;
1701;SDS011;848;48.354;10.064;2022-11-15T05:04:14;12.88;;;3.60;;
1701;SDS011;848;48.354;10.064;2022-11-15T05:06:46;13.23;;;3.72;;
1701;SDS011;848;48.354;10.064;2022-11-15T05:09:14;12.25;;;4.18;;
1701;SDS011;848;48.354;10.064;2022-11-15T05:11:42;12.85;;;3.78;;
1701;SDS011;848;48.354;10.064;2022-11-15T05:14:10;11.13;;;3.55;;
1701;SDS011;848;48.354;10.064;2022-11-15T05:16:37;11.95;;;4.22;;
1701;SDS011;848;48.354;10.064;2022-11-15T05:19:05;11.25;;;3.97;;
1701;SDS011;848;48.354;10.064;2022-11-15T05:21:34;12.20;;;3.35;;
1701;SDS011;848;48.354;10.064;2022-11-15T05:24:01;14.65;;;4.45;;
1701;SDS011;848;48.354;10.064;2022-11-15T05:26:29;11.65;;;3.80;;
1701;SDS011;848;48.354;10.064;2022-11-15T05:28:56;11.10;;;3.50;;
1701;SDS011;848;48.354;10.064;2022-11-15T05:31:26;11.07;;;4.05;;
1701;SDS011;848;48.354;10.064;2022-11-15T05:33:53;13.15;;;4.50;;
1701;SDS011;848;48.354;10.064;2022-11-15T05:36:25;13.75;;;4.22;;
1701;SDS011;848;48.354;10.064;2022-11-15T05:38:56;11.48;;;4.10;;
1701;SDS011;848;48.354;10.064;2022-11-15T05:41:25;11.68;;;3.20;;
1701;SDS011;848;48.354;10.064;2022-11-15T05:43:56;11.07;;;3.90;;
1701;SDS011;848;48.354;10.064;2022-11-15T05:46:25;11.80;;;4.60;;
1701;SDS011;848;48.354;10.064;2022-11-15T05:48:53;10.48;;;3.42;;
1701;SDS011;848;48.354;10.064;2022-11-15T05:51:21;12.35;;;3.40;;
1701;SDS011;848;48.354;10.064;2022-11-15T05:53:49;10.52;;;3.63;;
1701;SDS011;848;48.354;10.064;2022-11-15T05:56:17;10.98;;;3.95;;
1701;SDS011;848;48.354;10.064;2022-11-15T05:58:44;13.13;;;4.70;;
1701;SDS011;848;48.354;10.064;2022-11-15T06:01:11;11.35;;;4.10;;
1701;SDS011;848;48.354;10.064;2022-11-15T06:03:39;12.75;;;3.70;;
1701;SDS011;848;48.354;10.064;2022-11-15T06:06:07;11.18;;;3.65;;
1701;SDS011;848;48.354;10.064;2022-11-15T06:08:34;12.13;;;4.38;;
1701;SDS011;848;48.354;10.064;2022-11-15T06:11:04;11.35;;;3.85;;
1701;SDS011;848;48.354;10.064;2022-11-15T06:13:32;12.65;;;4.20;;
1701;SDS011;848;48.354;10.064;2022-11-15T06:16:00;11.60;;;3.80;;
1701;SDS011;848;48.354;10.064;2022-11-15T06:18:27;11.80;;;3.55;;
1701;SDS011;848;48.354;10.064;2022-11-15T06:20:57;14.27;;;4.30;;
1701;SDS011;848;48.354;10.064;2022-11-15T06:23:25;11.70;;;3.55;;
1701;SDS011;848;48.354;10.064;2022-11-15T06:25:52;13.13;;;3.40;;
1701;SDS011;848;48.354;10.064;2022-11-15T06:28:19;10.02;;;3.45;;
1701;SDS011;848;48.354;10.064;2022-11-15T06:30:46;9.65;;;3.05;;
1701;SDS011;848;48.354;10.064;2022-11-15T06:33:13;11.98;;;3.97;;
1701;SDS011;848;48.354;10.064;2022-11-15T06:35:39;11.05;;;3.63;;
1701;SDS011;848;48.354;10.064;2022-11-15T06:38:09;10.77;;;3.55;;
1701;SDS011;848;48.354;10.064;2022-11-15T06:40:37;18.45;;;3.80;;
1701;SDS011;848;48.354;10.064;2022-11-15T06:43:05;10.50;;;3.25;;
1701;SDS011;848;48.354;10.064;2022-11-15T06:45:32;14.50;;;5.13;;
1701;SDS011;848;48.354;10.064;2022-11-15T06:47:59;28.95;;;11.80;;
1701;SDS011;848;48.354;10.064;2022-11-15T06:50:26;17.90;;;7.13;;
1701;SDS011;848;48.354;10.064;2022-11-15T06:52:53;19.20;;;7.50;;
1701;SDS011;848;48.354;10.064;2022-11-15T06:55:21;17.48;;;6.60;;
1701;SDS011;848;48.354;10.064;2022-11-15T06:57:51;18.77;;;7.13;;
1701;SDS011;848;48.354;10.064;2022-11-15T07:00:20;13.68;;;5.70;;
1701;SDS011;848;48.354;10.064;2022-11-15T07:02:47;14.25;;;4.97;;
1701;SDS011;848;48.354;10.064;2022-11-15T07:05:15;18.52;;;6.32;;
1701;SDS011;848;48.354;10.064;2022-11-15T07:07:42;18.65;;;8.07;;
1701;SDS011;848;48.354;10.064;2022-11-15T07:10:09;21.38;;;10.35;;
1701;SDS011;848;48.354;10.064;2022-11-15T07:12:37;20.50;;;10.50;;
1701;SDS011;848;48.354;10.064;2022-11-15T07:15:05;18.33;;;7.97;;
1701;SDS011;848;48.354;10.064;2022-11-15T07:17:32;21.92;;;8.65;;
1701;SDS011;848;48.354;10.064;2022-11-15T07:19:59;18.98;;;7.53;;
1701;SDS011;848;48.354;10.064;2022-11-15T07:22:26;15.25;;;6.90;;
1701;SDS011;848;48.354;10.064;2022-11-15T07:24:53;17.77;;;7.43;;
1701;SDS011;848;48.354;10.064;2022-11-15T07:27:20;16.48;;;7.85;;
1701;SDS011;848;48.354;10.064;2022-11-15T07:29:48;20.10;;;9.63;;
1701;SDS011;848;48.354;10.064;2022-11-15T07:32:15;16.30;;;7.07;;
1701;SDS011;848;48.354;10.064;2022-11-15T07:34:42;15.80;;;6.38;;
1701;SDS011;848;48.354;10.064;2022-11-15T07:37:11;17.27;;;6.88;;
1701;SDS011;848;48.354;10.064;2022-11-15T07:39:38;25.63;;;11.52;;
1701;SDS011;848;48.354;10.064;2022-11-15T07:42:05;15.40;;;6.28;;
1701;SDS011;848;48.354;10.064;2022-11-15T07:44:50;16.92;;;5.35;;
1701;SDS011;848;48.354;10.064;2022-11-15T07:47:17;18.40;;;6.22;;
1701;SDS011;848;48.354;10.064;2022-11-15T07:49:44;29.02;;;16.10;;
1701;SDS011;848;48.354;10.064;2022-11-15T07:52:12;25.63;;;13.57;;
1701;SDS011;848;48.354;10.064;2022-11-15T07:54:39;17.25;;;9.82;;
1701;SDS011;848;48.354;10.064;2022-11-15T07:57:06;16.85;;;9.07;;
1701;SDS011;848;48.354;10.064;2022-11-15T07:59:34;36.33;;;21.50;;
1701;SDS011;848;48.354;10.064;2022-11-15T08:02:05;13.57;;;6.82;;
1701;SDS011;848;48.354;10.064;2022-11-15T08:04:36;13.15;;;5.40;;
1701;SDS011;848;48.354;10.064;2022-11-15T08:07:04;14.38;;;5.90;;
1701;SDS011;848;48.354;10.064;2022-11-15T08:09:30;15.60;;;6.22;;
1701;SDS011;848;48.354;10.064;2022-11-15T08:11:57;12.68;;;5.35;;
1701;SDS011;848;48.354;10.064;2022-11-15T08:14:24;25.30;;;11.00;;
1701;SDS011;848;48.354;10.064;2022-11-15T08:16:51;22.27;;;9.40;;
1701;SDS011;848;48.354;10.064;2022-11-15T08:19:21;20.67;;;9.60;;
1701;SDS011;848;48.354;10.064;2022-11-15T08:21:48;19.02;;;7.40;;
1701;SDS011;848;48.354;10.064;2022-11-15T08:24:15;17.02;;;8.38;;
1701;SDS011;848;48.354;10.064;2022-11-15T08:26:42;20.08;;;8.95;;
1701;SDS011;848;48.354;10.064;2022-11-15T08:29:09;22.80;;;9.90;;
1701;SDS011;848;48.354;10.064;2022-11-15T08:31:36;33.97;;;12.30;;
1701;SDS011;848;48.354;10.064;2022-11-15T08:34:03;21.63;;;9.27;;
1701;SDS011;848;48.354;10.064;2022-11-15T08:36:33;23.23;;;9.88;;
1701;SDS011;848;48.354;10.064;2022-11-15T08:38:59;22.05;;;9.52;;
1701;SDS011;848;48.354;10.064;2022-11-15T08:41:28;22.23;;;10.32;;
1701;SDS011;848;48.354;10.064;2022-11-15T08:43:57;20.33;;;10.02;;
1701;SDS011;848;48.354;10.064;2022-11-15T08:46:24;18.02;;;9.38;;
1701;SDS011;848;48.354;10.064;2022-11-15T08:48:51;18.17;;;8.82;;
1701;SDS011;848;48.354;10.064;2022-11-15T08:51:18;15.95;;;7.38;;
1701;SDS011;848;48.354;10.064;2022-11-15T08:53:46;15.45;;;6.05;;
1701;SDS011;848;48.354;10.064;2022-11-15T08:56:13;14.85;;;6.55;;
1701;SDS011;848;48.354;10.064;2022-11-15T08:58:41;14.45;;;6.53;;
1701;SDS011;848;48.354;10.064;2022-11-15T09:01:14;13.60;;;6.43;;
1701;SDS011;848;48.354;10.064;2022-11-15T09:03:42;12.77;;;6.43;;
1701;SDS011;848;48.354;10.064;2022-11-15T09:06:09;14.32;;;6.53;;
1701;SDS011;848;48.354;10.064;2022-11-15T09:08:36;16.20;;;6.78;;
1701;SDS011;848;48.354;10.064;2022-11-15T09:11:04;13.88;;;6.20;;
1701;SDS011;848;48.354;10.064;2022-11-15T09:13:32;18.17;;;7.30;;
1701;SDS011;848;48.354;10.064;2022-11-15T09:15:59;12.93;;;5.45;;
1701;SDS011;848;48.354;10.064;2022-11-15T09:18:26;18.13;;;6.30;;
1701;SDS011;848;48.354;10.064;2022-11-15T09:20:54;13.60;;;6.80;;
1701;SDS011;848;48.354;10.064;2022-11-15T09:23:23;13.15;;;6.10;;
1701;SDS011;848;48.354;10.064;2022-11-15T09:25:50;13.80;;;6.32;;
1701;SDS011;848;48.354;10.064;2022-11-15T09:28:19;12.82;;;6.30;;
1701;SDS011;848;48.354;10.064;2022-11-15T09:30:46;13.07;;;5.63;;
1701;SDS011;848;48.354;10.064;2022-11-15T09:33:13;19.33;;;10.75;;
1701;SDS011;848;48.354;10.064;2022-11-15T09:35:40;20.45;;;9.90;;
1701;SDS011;848;48.354;10.064;2022-11-15T09:38:07;20.73;;;10.48;;
1701;SDS011;848;48.354;10.064;2022-11-15T09:40:35;20.42;;;10.00;;
1701;SDS011;848;48.354;10.064;2022-11-15T09:46:07;20.15;;;10.50;;
1701;SDS011;848;48.354;10.064;2022-11-15T09:48:50;19.90;;;9.98;;
1701;SDS011;848;48.354;10.064;2022-11-15T09:51:26;19.52;;;9.38;;
1701;SDS011;848;48.354;10.064;2022-11-15T09:54:02;22.95;;;10.80;;
1701;SDS011;848;48.354;10.064;2022-11-15T09:56:37;19.02;;;10.23;;
1701;SDS011;848;48.354;10.064;2022-11-15T09:59:15;22.55;;;11.40;;
1701;SDS011;848;48.354;10.064;2022-11-15T10:01:51;18.77;;;11.45;;
1701;SDS011;848;48.354;10.064;2022-11-15T10:04:24;19.80;;;9.80;;
1701;SDS011;848;48.354;10.064;2022-11-15T10:06:54;22.17;;;9.80;;
1701;SDS011;848;48.354;10.064;2022-11-15T10:09:27;21.00;;;10.30;;
1701;SDS011;848;48.354;10.064;2022-11-15T10:11:58;22.40;;;10.48;;
1701;SDS011;848;48.354;10.064;2022-11-15T10:14:27;19.88;;;10.60;;
1701;SDS011;848;48.354;10.064;2022-11-15T10:17:02;19.67;;;10.48;;
1701;SDS011;848;48.354;10.064;2022-11-15T10:19:45;19.55;;;10.25;;
1701;SDS011;848;48.354;10.064;2022-11-15T10:22:25;19.08;;;10.10;;
1701;SDS011;848;48.354;10.064;2022-11-15T10:24:59;20.20;;;10.35;;
1701;SDS011;848;48.354;10.064;2022-11-15T10:27:38;19.85;;;9.80;;
1701;SDS011;848;48.354;10.064;2022-11-15T10:30:09;24.70;;;12.23;;
1701;SDS011;848;48.354;10.064;2022-11-15T10:32:38;21.67;;;10.05;;
1701;SDS011;848;48.354;10.064;2022-11-15T10:35:15;19.70;;;9.52;;
1701;SDS011;848;48.354;10.064;2022-11-15T10:37:44;16.90;;;9.75;;
1701;SDS011;848;48.354;10.064;2022-11-15T10:40:15;18.00;;;9.35;;
1701;SDS011;848;48.354;10.064;2022-11-15T10:42:43;20.08;;;9.98;;
1701;SDS011;848;48.354;10.064;2022-11-15T10:45:23;23.02;;;11.60;;
1701;SDS011;848;48.354;10.064;2022-11-15T10:48:02;19.77;;;11.35;;
1701;SDS011;848;48.354;10.064;2022-11-15T10:50:47;20.50;;;10.65;;
1701;SDS011;848;48.354;10.064;2022-11-15T10:53:17;18.67;;;10.50;;
1701;SDS011;848;48.354;10.064;2022-11-15T10:55:52;18.48;;;10.40;;
1701;SDS011;848;48.354;10.064;2022-11-15T10:58:27;23.17;;;11.95;;
1701;SDS011;848;48.354;10.064;2022-11-15T11:01:09;22.33;;;12.18;;
1701;SDS011;848;48.354;10.064;2022-11-15T11:03:38;24.83;;;12.88;;
1701;SDS011;848;48.354;10.064;2022-11-15T11:06:08;25.75;;;12.15;;
1701;SDS011;848;48.354;10.064;2022-11-15T11:08:37;21.00;;;10.27;;
1701;SDS011;848;48.354;10.064;2022-11-15T11:11:04;21.15;;;9.30;;
1701;SDS011;848;48.354;10.064;2022-11-15T11:13:32;18.52;;;9.63;;
1701;SDS011;848;48.354;10.064;2022-11-15T11:19:02;20.55;;;8.70;;
1701;SDS011;848;48.354;10.064;2022-11-15T11:21:39;17.92;;;8.20;;
1701;SDS011;848;48.354;10.064;2022-11-15T11:24:16;18.52;;;9.43;;
1701;SDS011;848;48.354;10.064;2022-11-15T11:26:55;23.75;;;12.95;;
1701;SDS011;848;48.354;10.064;2022-11-15T11:29:33;26.08;;;12.55;;
1701;SDS011;848;48.354;10.064;2022-11-15T11:32:17;24.75;;;13.43;;
1701;SDS011;848;48.354;10.064;2022-11-15T11:34:58;22.73;;;12.18;;
1701;SDS011;848;48.354;10.064;2022-11-15T11:37:32;22.17;;;12.20;;
1701;SDS011;848;48.354;10.064;2022-11-15T11:40:10;23.80;;;12.20;;
1701;SDS011;848;48.354;10.064;2022-11-15T11:42:48;23.35;;;11.48;;
1701;SDS011;848;48.354;10.064;2022-11-15T11:45:29;26.77;;;13.93;;
1701;SDS011;848;48.354;10.064;2022-11-15T11:48:11;23.98;;;12.57;;
1701;SDS011;848;48.354;10.064;2022-11-15T11:50:42;21.80;;;11.20;;
1701;SDS011;848;48.354;10.064;2022-11-15T11:53:12;22.50;;;10.93;;
1701;SDS011;848;48.354;10.064;2022-11-15T11:55:43;26.35;;;12.55;;
1701;SDS011;848;48.354;10.064;2022-11-15T11:58:12;20.15;;;10.38;;
1701;SDS011;848;48.354;10.064;2022-11-15T12:00:47;23.00;;;10.75;;
1701;SDS011;848;48.354;10.064;2022-11-15T12:03:21;20.90;;;9.98;;
1701;SDS011;848;48.354;10.064;2022-11-15T12:05:54;18.88;;;8.90;;
1701;SDS011;848;48.354;10.064;2022-11-15T12:08:27;18.33;;;8.32;;
1701;SDS011;848;48.354;10.064;2022-11-15T12:11:00;16.33;;;7.47;;
1701;SDS011;848;48.354;10.064;2022-11-15T12:13:31;17.67;;;8.68;;
1701;SDS011;848;48.354;10.064;2022-11-15T12:16:02;17.70;;;8.05;;
1701;SDS011;848;48.354;10.064;2022-11-15T12:18:35;16.58;;;7.40;;
1701;SDS011;848;48.354;10.064;2022-11-15T12:21:03;18.42;;;8.55;;
1701;SDS011;848;48.354;10.064;2022-11-15T12:23:37;21.15;;;9.38;;
1701;SDS011;848;48.354;10.064;2022-11-15T12:26:08;20.55;;;9.88;;
1701;SDS011;848;48.354;10.064;2022-11-15T12:28:41;17.63;;;9.18;;
1701;SDS011;848;48.354;10.064;2022-11-15T12:31:14;23.63;;;8.57;;
1701;SDS011;848;48.354;10.064;2022-11-15T12:33:47;20.00;;;10.00;;
1701;SDS011;848;48.354;10.064;2022-11-15T12:36:30;20.67;;;9.95;;
1701;SDS011;848;48.354;10.064;2022-11-15T12:39:03;25.70;;;8.98;;
1701;SDS011;848;48.354;10.064;2022-11-15T12:41:31;20.17;;;9.38;;
1701;SDS011;848;48.354;10.064;2022-11-15T12:43:59;21.25;;;8.40;;
1701;SDS011;848;48.354;10.064;2022-11-15T12:49:44;17.80;;;8.20;;
1701;SDS011;848;48.354;10.064;2022-11-15T12:52:12;17.48;;;7.90;;
1701;SDS011;848;48.354;10.064;2022-11-15T12:54:52;18.00;;;8.63;;
1701;SDS011;848;48.354;10.064;2022-11-15T12:57:28;37.03;;;11.20;;
1701;SDS011;848;48.354;10.064;2022-11-15T12:59:57;19.27;;;7.97;;
1701;SDS011;848;48.354;10.064;2022-11-15T13:02:27;19.38;;;7.45;;
1701;SDS011;848;48.354;10.064;2022-11-15T13:07:57;24.02;;;8.63;;
1701;SDS011;848;48.354;10.064;2022-11-15T13:10:28;19.77;;;6.57;;
1701;SDS011;848;48.354;10.064;2022-11-15T13:12:57;19.08;;;7.70;;
1701;SDS011;848;48.354;10.064;2022-11-15T13:15:35;22.17;;;7.93;;
1701;SDS011;848;48.354;10.064;2022-11-15T13:18:33;27.42;;;9.02;;
1701;SDS011;848;48.354;10.064;2022-11-15T13:21:03;22.92;;;8.52;;
1701;SDS011;848;48.354;10.064;2022-11-15T13:24:03;25.63;;;6.75;;
1701;SDS011;848;48.354;10.064;2022-11-15T13:26:30;19.63;;;6.93;;
1701;SDS011;848;48.354;10.064;2022-11-15T13:28:57;18.50;;;6.53;;
1701;SDS011;848;48.354;10.064;2022-11-15T13:31:27;21.77;;;6.75;;
1701;SDS011;848;48.354;10.064;2022-11-15T13:33:57;15.05;;;5.47;;
1701;SDS011;848;48.354;10.064;2022-11-15T13:36:27;29.48;;;8.55;;
1701;SDS011;848;48.354;10.064;2022-11-15T13:38:59;16.77;;;6.22;;
1701;SDS011;848;48.354;10.064;2022-11-15T13:41:29;23.55;;;7.47;;
1701;SDS011;848;48.354;10.064;2022-11-15T13:43:57;18.45;;;8.13;;
1701;SDS011;848;48.354;10.064;2022-11-15T13:46:26;18.35;;;7.97;;
1701;SDS011;848;48.354;10.064;2022-11-15T13:48:54;20.52;;;8.57;;
1701;SDS011;848;48.354;10.064;2022-11-15T13:51:30;17.52;;;8.20;;
1701;SDS011;848;48.354;10.064;2022-11-15T13:54:02;18.85;;;8.85;;
1701;SDS011;848;48.354;10.064;2022-11-15T13:56:36;19.08;;;8.57;;
1701;SDS011;848;48.354;10.064;2022-11-15T13:59:10;20.63;;;8.65;;
1701;SDS011;848;48.354;10.064;2022-11-15T14:01:40;19.45;;;8.57;;
1701;SDS011;848;48.354;10.064;2022-11-15T14:04:09;18.48;;;8.38;;
1701;SDS011;848;48.354;10.064;2022-11-15T14:06:43;19.85;;;8.48;;
1701;SDS011;848;48.354;10.064;2022-11-15T14:12:23;16.70;;;7.32;;
1701;SDS011;848;48.354;10.064;2022-11-15T14:14:55;19.13;;;7.38;;
1701;SDS011;848;48.354;10.064;2022-11-15T14:17:32;17.25;;;7.10;;
1701;SDS011;848;48.354;10.064;2022-11-15T14:20:01;23.00;;;7.60;;
1701;SDS011;848;48.354;10.064;2022-11-15T14:22:50;19.27;;;7.45;;
1701;SDS011;848;48.354;10.064;2022-11-15T14:25:18;21.98;;;8.10;;
1701;SDS011;848;48.354;10.064;2022-11-15T14:30:37;16.45;;;6.65;;
1701;SDS011;848;48.354;10.064;2022-11-15T14:33:15;16.30;;;6.65;;
1701;SDS011;848;48.354;10.064;2022-11-15T14:35:45;16.50;;;7.45;;
1701;SDS011;848;48.354;10.064;2022-11-15T14:38:12;19.02;;;7.72;;
1701;SDS011;848;48.354;10.064;2022-11-15T14:40:39;17.52;;;7.30;;
1701;SDS011;848;48.354;10.064;2022-11-15T14:43:07;18.05;;;10.00;;
1701;SDS011;848;48.354;10.064;2022-11-15T14:45:36;17.10;;;7.63;;
1701;SDS011;848;48.354;10.064;2022-11-15T14:48:04;15.63;;;6.57;;
1701;SDS011;848;48.354;10.064;2022-11-15T14:50:34;18.95;;;7.10;;
1701;SDS011;848;48.354;10.064;2022-11-15T14:53:02;16.58;;;7.53;;
1701;SDS011;848;48.354;10.064;2022-11-15T14:55:30;21.67;;;7.07;;
1701;SDS011;848;48.354;10.064;2022-11-15T14:58:00;18.95;;;6.97;;
1701;SDS011;848;48.354;10.064;2022-11-15T15:00:29;17.83;;;7.28;;
1701;SDS011;848;48.354;10.064;2022-11-15T15:02:56;14.45;;;6.18;;
1701;SDS011;848;48.354;10.064;2022-11-15T15:05:24;16.55;;;7.00;;
1701;SDS011;848;48.354;10.064;2022-11-15T15:07:55;19.20;;;7.20;;
1701;SDS011;848;48.354;10.064;2022-11-15T15:10:22;16.75;;;6.95;;
1701;SDS011;848;48.354;10.064;2022-11-15T15:12:50;17.17;;;7.13;;
1701;SDS011;848;48.354;10.064;2022-11-15T15:15:21;15.45;;;6.60;;
1701;SDS011;848;48.354;10.064;2022-11-15T15:17:52;19.42;;;7.05;;
1701;SDS011;848;48.354;10.064;2022-11-15T15:20:19;16.63;;;6.95;;
1701;SDS011;848;48.354;10.064;2022-11-15T15:22:46;16.33;;;6.03;;
1701;SDS011;848;48.354;10.064;2022-11-15T15:25:23;16.83;;;7.18;;
1701;SDS011;848;48.354;10.064;2022-11-15T15:27:53;19.20;;;6.85;;
1701;SDS011;848;48.354;10.064;2022-11-15T15:30:20;20.35;;;7.78;;
1701;SDS011;848;48.354;10.064;2022-11-15T15:32:47;21.20;;;7.65;;
1701;SDS011;848;48.354;10.064;2022-11-15T15:35:16;22.38;;;9.45;;
1701;SDS011;848;48.354;10.064;2022-11-15T15:37:44;16.33;;;6.95;;
1701;SDS011;848;48.354;10.064;2022-11-15T15:40:14;17.15;;;7.05;;